sensor_id;sensor_type;location;lat;lon;timestamp;pressure;altitude;pressure_sealevel;temperature;humidity
51245;BME280;37840;47.562;18.738;2023-07-29T00:00:33;99317.19;;;20.25;83.34
51245;BME280;37840;47.562;18.738;2023-07-29T00:02:59;99309.97;;;20.25;83.08
51245;BME280;37840;47.562;18.738;2023-07-29T00:05:24;99302.38;;;20.21;82.85
51245;BME280;37840;47.562;18.738;2023-07-29T00:07:50;99304.12;;;20.13;83.61
51245;BME280;37840;47.562;18.738;2023-07-29T00:10:16;99314.81;;;20.07;84.14
51245;BME280;37840;47.562;18.738;2023-07-29T00:12:41;99304.47;;;19.95;84.52
51245;BME280;37840;47.562;18.738;2023-07-29T00:15:07;99307.28;;;20.02;84.62
51245;BME280;37840;47.562;18.738;2023-07-29T00:17:33;99304.69;;;20.09;83.37
51245;BME280;37840;47.562;18.738;2023-07-29T00:19:59;99306.19;;;20.11;82.59
51245;BME280;37840;47.562;18.738;2023-07-29T00:22:24;99304.84;;;20.07;82.29
51245;BME280;37840;47.562;18.738;2023-07-29T00:24:53;99313.69;;;20.01;82.33
51245;BME280;37840;47.562;18.738;2023-07-29T00:27:23;99304.31;;;19.89;83.07
51245;BME280;37840;47.562;18.738;2023-07-29T00:29:49;99305.34;;;19.88;83.15
51245;BME280;37840;47.562;18.738;2023-07-29T00:32:14;99307.69;;;19.91;82.82
51245;BME280;37840;47.562;18.738;2023-07-29T00:34:40;99300.00;;;19.80;83.16
51245;BME280;37840;47.562;18.738;2023-07-29T00:37:06;99299.34;;;19.78;83.36
51245;BME280;37840;47.562;18.738;2023-07-29T00:39:32;99302.41;;;19.74;83.26
51245;BME280;37840;47.562;18.738;2023-07-29T00:41:58;99302.75;;;19.71;82.81
51245;BME280;37840;47.562;18.738;2023-07-29T00:44:23;99300.06;;;19.63;82.52
51245;BME280;37840;47.562;18.738;2023-07-29T00:46:52;99300.41;;;19.68;82.04
51245;BME280;37840;47.562;18.738;2023-07-29T00:49:21;99299.37;;;19.69;81.83
51245;BME280;37840;47.562;18.738;2023-07-29T00:51:47;99289.59;;;19.68;81.69
51245;BME280;37840;47.562;18.738;2023-07-29T00:54:13;99295.34;;;19.65;81.76
51245;BME280;37840;47.562;18.738;2023-07-29T00:56:39;99292.34;;;19.60;82.00
51245;BME280;37840;47.562;18.738;2023-07-29T00:59:05;99294.72;;;19.55;82.45
51245;BME280;37840;47.562;18.738;2023-07-29T01:01:31;99293.19;;;19.61;82.07
51245;BME280;37840;47.562;18.738;2023-07-29T01:03:57;99286.13;;;19.60;81.74
51245;BME280;37840;47.562;18.738;2023-07-29T01:06:34;99292.69;;;19.57;81.90
51245;BME280;37840;47.562;18.738;2023-07-29T01:09:08;99295.75;;;19.54;81.06
51245;BME280;37840;47.562;18.738;2023-07-29T01:14:05;99298.66;;;19.44;81.12
51245;BME280;37840;47.562;18.738;2023-07-29T01:16:40;99299.16;;;19.48;80.66
51245;BME280;37840;47.562;18.738;2023-07-29T01:19:07;99294.13;;;19.45;80.99
51245;BME280;37840;47.562;18.738;2023-07-29T01:21:40;99291.78;;;19.42;81.08
51245;BME280;37840;47.562;18.738;2023-07-29T01:24:06;99288.62;;;19.38;81.41
51245;BME280;37840;47.562;18.738;2023-07-29T01:26:32;99293.34;;;19.36;81.50
51245;BME280;37840;47.562;18.738;2023-07-29T01:28:58;99293.34;;;19.36;81.66
51245;BME280;37840;47.562;18.738;2023-07-29T01:31:33;99296.88;;;19.37;81.78
51245;BME280;37840;47.562;18.738;2023-07-29T01:36:41;99295.59;;;19.24;82.14
51245;BME280;37840;47.562;18.738;2023-07-29T01:39:07;99297.44;;;19.24;82.08
51245;BME280;37840;47.562;18.738;2023-07-29T01:41:34;99291.34;;;19.30;82.03
51245;BME280;37840;47.562;18.738;2023-07-29T01:44:00;99295.59;;;19.24;81.55
51245;BME280;37840;47.562;18.738;2023-07-29T01:46:27;99299.53;;;19.05;81.09
51245;BME280;37840;47.562;18.738;2023-07-29T01:48:52;99304.62;;;19.00;80.30
51245;BME280;37840;47.562;18.738;2023-07-29T01:51:18;99305.34;;;18.86;81.10
51245;BME280;37840;47.562;18.738;2023-07-29T01:53:44;99302.94;;;18.91;81.22
51245;BME280;37840;47.562;18.738;2023-07-29T01:56:10;99302.78;;;18.92;81.34
51245;BME280;37840;47.562;18.738;2023-07-29T01:58:36;99302.94;;;18.91;81.38
51245;BME280;37840;47.562;18.738;2023-07-29T02:01:01;99300.94;;;18.85;81.86
51245;BME280;37840;47.562;18.738;2023-07-29T02:03:27;99296.94;;;18.81;82.27
51245;BME280;37840;47.562;18.738;2023-07-29T02:05:53;99306.00;;;18.71;82.92
51245;BME280;37840;47.562;18.738;2023-07-29T02:08:19;99304.88;;;18.66;83.34
51245;BME280;37840;47.562;18.738;2023-07-29T02:10:44;99300.47;;;18.65;83.69
51245;BME280;37840;47.562;18.738;2023-07-29T02:13:11;99294.06;;;18.74;83.37
51245;BME280;37840;47.562;18.738;2023-07-29T02:15:36;99292.22;;;18.74;83.49
51245;BME280;37840;47.562;18.738;2023-07-29T02:18:02;99294.25;;;18.81;83.36
51245;BME280;37840;47.562;18.738;2023-07-29T02:20:28;99287.84;;;18.82;83.18
51245;BME280;37840;47.562;18.738;2023-07-29T02:22:54;99291.22;;;18.67;84.01
51245;BME280;37840;47.562;18.738;2023-07-29T02:25:20;99293.59;;;18.62;84.38
51245;BME280;37840;47.562;18.738;2023-07-29T02:27:46;99288.50;;;18.67;84.11
51245;BME280;37840;47.562;18.738;2023-07-29T02:30:11;99301.97;;;18.67;84.15
51245;BME280;37840;47.562;18.738;2023-07-29T02:32:37;99294.09;;;18.66;84.32
51245;BME280;37840;47.562;18.738;2023-07-29T02:35:03;99299.13;;;18.61;84.28
51245;BME280;37840;47.562;18.738;2023-07-29T02:37:30;99296.81;;;18.49;84.18
51245;BME280;37840;47.562;18.738;2023-07-29T02:39:56;99301.84;;;18.44;83.79
51245;BME280;37840;47.562;18.738;2023-07-29T02:42:21;99302.88;;;18.51;83.45
51245;BME280;37840;47.562;18.738;2023-07-29T02:44:47;99298.31;;;18.60;83.05
51245;BME280;37840;47.562;18.738;2023-07-29T02:47:13;99303.19;;;18.65;83.29
51245;BME280;37840;47.562;18.738;2023-07-29T02:49:38;99303.19;;;18.65;83.38
51245;BME280;37840;47.562;18.738;2023-07-29T02:52:04;99307.87;;;18.63;83.49
51245;BME280;37840;47.562;18.738;2023-07-29T02:54:30;99312.28;;;18.64;83.62
51245;BME280;37840;47.562;18.738;2023-07-29T02:56:56;99305.56;;;18.51;83.92
51245;BME280;37840;47.562;18.738;2023-07-29T02:59:21;99302.38;;;18.40;84.38
51245;BME280;37840;47.562;18.738;2023-07-29T03:01:47;99304.38;;;18.46;84.15
51245;BME280;37840;47.562;18.738;2023-07-29T03:04:13;99312.16;;;18.41;81.90
51245;BME280;37840;47.562;18.738;2023-07-29T03:06:38;99308.78;;;18.30;82.27
51245;BME280;37840;47.562;18.738;2023-07-29T03:09:04;99303.06;;;18.25;82.11
51245;BME280;37840;47.562;18.738;2023-07-29T03:11:30;99310.13;;;18.26;82.36
51245;BME280;37840;47.562;18.738;2023-07-29T03:13:56;99304.91;;;18.33;82.08
51245;BME280;37840;47.562;18.738;2023-07-29T03:16:22;99303.03;;;18.33;81.90
51245;BME280;37840;47.562;18.738;2023-07-29T03:18:48;99299.19;;;18.36;82.04
51245;BME280;37840;47.562;18.738;2023-07-29T03:21:14;99301.53;;;18.31;82.48
51245;BME280;37840;47.562;18.738;2023-07-29T03:23:40;99310.28;;;18.25;82.44
51245;BME280;37840;47.562;18.738;2023-07-29T03:26:05;99310.31;;;17.92;81.69
51245;BME280;37840;47.562;18.738;2023-07-29T03:28:39;99311.44;;;17.81;82.86
51245;BME280;37840;47.562;18.738;2023-07-29T03:31:04;99310.62;;;17.89;83.64
51245;BME280;37840;47.562;18.738;2023-07-29T03:33:30;99317.53;;;17.83;84.32
51245;BME280;37840;47.562;18.738;2023-07-29T03:35:56;99313.81;;;17.84;84.65
51245;BME280;37840;47.562;18.738;2023-07-29T03:38:22;99315.00;;;17.90;84.94
51245;BME280;37840;47.562;18.738;2023-07-29T03:40:48;99307.09;;;17.97;85.08
51245;BME280;37840;47.562;18.738;2023-07-29T03:43:14;99319.06;;;18.02;84.96
51245;BME280;37840;47.562;18.738;2023-07-29T03:45:40;99316.53;;;18.09;85.19
51245;BME280;37840;47.562;18.738;2023-07-29T03:48:06;99310.13;;;18.10;85.35
51245;BME280;37840;47.562;18.738;2023-07-29T03:50:33;99318.34;;;18.08;85.78
51245;BME280;37840;47.562;18.738;2023-07-29T03:52:58;99313.66;;;18.19;85.12
51245;BME280;37840;47.562;18.738;2023-07-29T03:55:24;99316.84;;;18.22;85.08
51245;BME280;37840;47.562;18.738;2023-07-29T03:57:50;99320.53;;;18.29;84.64
51245;BME280;37840;47.562;18.738;2023-07-29T04:00:16;99322.41;;;18.29;84.90
51245;BME280;37840;47.562;18.738;2023-07-29T04:02:42;99316.69;;;18.24;85.39
51245;BME280;37840;47.562;18.738;2023-07-29T04:05:08;99315.34;;;18.20;86.27
51245;BME280;37840;47.562;18.738;2023-07-29T04:07:37;99314.84;;;18.08;86.84
51245;BME280;37840;47.562;18.738;2023-07-29T04:10:03;99318.53;;;17.99;87.67
51245;BME280;37840;47.562;18.738;2023-07-29T04:12:29;99327.81;;;18.04;87.73
51245;BME280;37840;47.562;18.738;2023-07-29T04:14:54;99323.41;;;18.11;87.74
51245;BME280;37840;47.562;18.738;2023-07-29T04:17:20;99315.19;;;18.13;87.47
51245;BME280;37840;47.562;18.738;2023-07-29T04:19:46;99321.41;;;18.22;87.61
51245;BME280;37840;47.562;18.738;2023-07-29T04:22:11;99318.53;;;18.31;87.03
51245;BME280;37840;47.562;18.738;2023-07-29T04:24:37;99315.66;;;18.33;87.03
51245;BME280;37840;47.562;18.738;2023-07-29T04:27:03;99320.53;;;18.29;88.41
51245;BME280;37840;47.562;18.738;2023-07-29T04:29:29;99316.53;;;18.17;89.63
51245;BME280;37840;47.562;18.738;2023-07-29T04:31:55;99320.38;;;18.14;90.16
51245;BME280;37840;47.562;18.738;2023-07-29T04:34:20;99320.38;;;18.14;90.37
51245;BME280;37840;47.562;18.738;2023-07-29T04:36:46;99319.56;;;18.22;89.96
51245;BME280;37840;47.562;18.738;2023-07-29T04:39:12;99319.72;;;18.29;89.19
51245;BME280;37840;47.562;18.738;2023-07-29T04:41:38;99326.44;;;18.41;89.29
51245;BME280;37840;47.562;18.738;2023-07-29T04:44:04;99327.25;;;18.58;88.58
51245;BME280;37840;47.562;18.738;2023-07-29T04:46:30;99322.03;;;18.65;88.61
51245;BME280;37840;47.562;18.738;2023-07-29T04:48:55;99336.31;;;18.73;89.21
51245;BME280;37840;47.562;18.738;2023-07-29T04:51:21;99332.13;;;18.87;89.52
51245;BME280;37840;47.562;18.738;2023-07-29T04:53:47;99327.53;;;18.96;90.00
51245;BME280;37840;47.562;18.738;2023-07-29T04:56:13;99320.09;;;19.06;90.16
51245;BME280;37840;47.562;18.738;2023-07-29T04:58:39;99321.38;;;19.19;88.90
51245;BME280;37840;47.562;18.738;2023-07-29T05:01:05;99312.38;;;19.34;90.17
51245;BME280;37840;47.562;18.738;2023-07-29T05:03:31;99306.72;;;19.52;91.75
51245;BME280;37840;47.562;18.738;2023-07-29T05:05:57;99313.09;;;19.60;90.72
51245;BME280;37840;47.562;18.738;2023-07-29T05:08:23;99315.41;;;19.71;89.94
51245;BME280;37840;47.562;18.738;2023-07-29T05:10:50;99329.53;;;19.81;88.68
51245;BME280;37840;47.562;18.738;2023-07-29T05:13:16;99342.28;;;19.87;88.28
51245;BME280;37840;47.562;18.738;2023-07-29T05:15:42;99343.63;;;19.91;89.05
51245;BME280;37840;47.562;18.738;2023-07-29T05:18:07;99348.47;;;19.96;88.59
51245;BME280;37840;47.562;18.738;2023-07-29T05:20:33;99345.72;;;20.04;89.48
51245;BME280;37840;47.562;18.738;2023-07-29T05:22:59;99354.78;;;20.11;88.28
51245;BME280;37840;47.562;18.738;2023-07-29T05:25:24;99355.84;;;20.25;89.43
51245;BME280;37840;47.562;18.738;2023-07-29T05:27:50;99359.72;;;20.46;92.82
51245;BME280;37840;47.562;18.738;2023-07-29T05:30:16;99363.00;;;20.56;90.01
51245;BME280;37840;47.562;18.738;2023-07-29T05:32:41;99362.47;;;20.61;88.90
51245;BME280;37840;47.562;18.738;2023-07-29T05:35:07;99356.41;;;20.59;89.85
51245;BME280;37840;47.562;18.738;2023-07-29T05:37:33;99359.06;;;20.67;90.60
51245;BME280;37840;47.562;18.738;2023-07-29T05:39:59;99358.59;;;20.78;91.10
51245;BME280;37840;47.562;18.738;2023-07-29T05:42:25;99365.50;;;20.81;89.34
51245;BME280;37840;47.562;18.738;2023-07-29T05:44:50;99369.13;;;20.73;89.41
51245;BME280;37840;47.562;18.738;2023-07-29T05:47:16;99366.81;;;20.70;89.46
51245;BME280;37840;47.562;18.738;2023-07-29T05:49:42;99374.91;;;20.70;89.55
51245;BME280;37840;47.562;18.738;2023-07-29T05:52:07;99376.97;;;20.68;88.99
51245;BME280;37840;47.562;18.738;2023-07-29T05:54:33;99381.50;;;20.67;88.68
51245;BME280;37840;47.562;18.738;2023-07-29T05:56:59;99382.81;;;20.71;88.46
51245;BME280;37840;47.562;18.738;2023-07-29T05:59:24;99383.94;;;20.77;88.21
51245;BME280;37840;47.562;18.738;2023-07-29T06:01:50;99392.53;;;20.81;89.67
51245;BME280;37840;47.562;18.738;2023-07-29T06:04:16;99391.97;;;20.85;89.79
51245;BME280;37840;47.562;18.738;2023-07-29T06:06:41;99391.72;;;21.10;92.80
51245;BME280;37840;47.562;18.738;2023-07-29T06:09:07;99386.31;;;21.25;92.59
51245;BME280;37840;47.562;18.738;2023-07-29T06:11:33;99385.13;;;21.42;88.53
51245;BME280;37840;47.562;18.738;2023-07-29T06:13:59;99391.16;;;21.59;87.90
51245;BME280;37840;47.562;18.738;2023-07-29T06:16:24;99392.56;;;21.70;81.12
51245;BME280;37840;47.562;18.738;2023-07-29T06:18:50;99394.13;;;21.79;82.17
51245;BME280;37840;47.562;18.738;2023-07-29T06:21:18;99401.28;;;21.87;81.62
51245;BME280;37840;47.562;18.738;2023-07-29T06:23:45;99403.84;;;21.95;81.32
51245;BME280;37840;47.562;18.738;2023-07-29T06:26:11;99401.63;;;21.98;80.98
51245;BME280;37840;47.562;18.738;2023-07-29T06:28:37;99400.56;;;22.14;79.07
51245;BME280;37840;47.562;18.738;2023-07-29T06:31:02;99400.81;;;22.19;78.99
51245;BME280;37840;47.562;18.738;2023-07-29T06:33:28;99403.03;;;22.31;79.61
51245;BME280;37840;47.562;18.738;2023-07-29T06:35:54;99397.28;;;22.41;79.07
51245;BME280;37840;47.562;18.738;2023-07-29T06:38:20;99396.12;;;22.50;78.98
51245;BME280;37840;47.562;18.738;2023-07-29T06:40:47;99403.34;;;22.64;76.10
51245;BME280;37840;47.562;18.738;2023-07-29T06:43:13;99404.22;;;22.71;76.48
51245;BME280;37840;47.562;18.738;2023-07-29T06:45:39;99409.13;;;22.83;75.73
51245;BME280;37840;47.562;18.738;2023-07-29T06:48:04;99412.72;;;22.90;75.49
51245;BME280;37840;47.562;18.738;2023-07-29T06:50:30;99402.75;;;22.97;75.00
51245;BME280;37840;47.562;18.738;2023-07-29T06:52:56;99406.63;;;23.09;73.34
51245;BME280;37840;47.562;18.738;2023-07-29T06:55:21;99391.44;;;23.15;73.62
51245;BME280;37840;47.562;18.738;2023-07-29T06:57:47;99394.41;;;23.27;71.67
51245;BME280;37840;47.562;18.738;2023-07-29T07:00:13;99392.59;;;23.34;72.82
51245;BME280;37840;47.562;18.738;2023-07-29T07:02:39;99400.78;;;23.47;72.36
51245;BME280;37840;47.562;18.738;2023-07-29T07:05:04;99395.62;;;23.59;71.60
51245;BME280;37840;47.562;18.738;2023-07-29T07:07:30;99390.63;;;23.69;69.74
51245;BME280;37840;47.562;18.738;2023-07-29T07:09:56;99390.31;;;23.79;69.57
51245;BME280;37840;47.562;18.738;2023-07-29T07:12:22;99391.16;;;23.86;69.48
51245;BME280;37840;47.562;18.738;2023-07-29T07:14:47;99389.31;;;23.93;67.38
51245;BME280;37840;47.562;18.738;2023-07-29T07:17:13;99383.66;;;23.95;68.45
51245;BME280;37840;47.562;18.738;2023-07-29T07:19:39;99387.25;;;24.02;69.40
51245;BME280;37840;47.562;18.738;2023-07-29T07:22:05;99386.63;;;24.13;68.55
51245;BME280;37840;47.562;18.738;2023-07-29T07:24:31;99388.97;;;24.30;68.11
51245;BME280;37840;47.562;18.738;2023-07-29T07:26:56;99383.72;;;24.35;67.59
51245;BME280;37840;47.562;18.738;2023-07-29T07:29:22;99385.00;;;24.46;66.58
51245;BME280;37840;47.562;18.738;2023-07-29T07:31:52;99382.75;;;24.56;65.42
51245;BME280;37840;47.562;18.738;2023-07-29T07:34:21;99374.19;;;24.66;66.71
51245;BME280;37840;47.562;18.738;2023-07-29T07:36:47;99373.34;;;24.78;66.28
51245;BME280;37840;47.562;18.738;2023-07-29T07:39:13;99375.41;;;24.90;65.62
51245;BME280;37840;47.562;18.738;2023-07-29T07:41:40;99372.25;;;24.99;65.61
51245;BME280;37840;47.562;18.738;2023-07-29T07:44:05;99363.66;;;25.09;64.64
51245;BME280;37840;47.562;18.738;2023-07-29T07:46:31;99369.06;;;25.16;65.24
51245;BME280;37840;47.562;18.738;2023-07-29T07:48:57;99368.87;;;25.24;64.86
51245;BME280;37840;47.562;18.738;2023-07-29T07:51:22;99368.44;;;25.34;62.96
51245;BME280;37840;47.562;18.738;2023-07-29T07:53:48;99376.56;;;25.40;63.24
51245;BME280;37840;47.562;18.738;2023-07-29T07:56:14;99373.19;;;25.45;63.00
51245;BME280;37840;47.562;18.738;2023-07-29T07:58:40;99371.72;;;25.49;61.38
51245;BME280;37840;47.562;18.738;2023-07-29T08:01:06;99367.31;;;25.55;61.97
51245;BME280;37840;47.562;18.738;2023-07-29T08:03:33;99365.38;;;25.62;61.73
51245;BME280;37840;47.562;18.738;2023-07-29T08:05:59;99368.50;;;25.72;61.08
51245;BME280;37840;47.562;18.738;2023-07-29T08:08:25;99363.63;;;25.81;62.20
51245;BME280;37840;47.562;18.738;2023-07-29T08:10:52;99368.44;;;25.79;58.16
51245;BME280;37840;47.562;18.738;2023-07-29T08:13:17;99355.84;;;25.84;58.01
51245;BME280;37840;47.562;18.738;2023-07-29T08:15:45;99362.09;;;25.98;56.58
51245;BME280;37840;47.562;18.738;2023-07-29T08:18:11;99357.25;;;26.00;54.98
51245;BME280;37840;47.562;18.738;2023-07-29T08:20:36;99357.25;;;26.00;57.36
51245;BME280;37840;47.562;18.738;2023-07-29T08:23:02;99356.62;;;25.98;58.48
51245;BME280;37840;47.562;18.738;2023-07-29T08:25:28;99359.16;;;26.00;58.34
51245;BME280;37840;47.562;18.738;2023-07-29T08:27:54;99360.37;;;26.04;56.83
51245;BME280;37840;47.562;18.738;2023-07-29T08:30:19;99357.78;;;26.16;55.24
51245;BME280;37840;47.562;18.738;2023-07-29T08:32:45;99354.16;;;26.22;56.84
51245;BME280;37840;47.562;18.738;2023-07-29T08:35:11;99351.69;;;26.20;57.20
51245;BME280;37840;47.562;18.738;2023-07-29T08:37:36;99351.03;;;26.25;55.51
51245;BME280;37840;47.562;18.738;2023-07-29T08:40:02;99352.00;;;26.31;57.02
51245;BME280;37840;47.562;18.738;2023-07-29T08:42:29;99348.19;;;26.38;58.60
51245;BME280;37840;47.562;18.738;2023-07-29T08:44:56;99347.91;;;26.47;57.96
51245;BME280;37840;47.562;18.738;2023-07-29T08:47:22;99346.19;;;26.52;56.50
51245;BME280;37840;47.562;18.738;2023-07-29T08:49:48;99345.94;;;26.54;54.71
51245;BME280;37840;47.562;18.738;2023-07-29T08:52:16;99346.78;;;26.61;54.98
51245;BME280;37840;47.562;18.738;2023-07-29T08:54:42;99340.72;;;26.77;51.79
51245;BME280;37840;47.562;18.738;2023-07-29T08:57:07;99341.88;;;26.70;55.18
51245;BME280;37840;47.562;18.738;2023-07-29T08:59:33;99344.13;;;26.73;53.32
51245;BME280;37840;47.562;18.738;2023-07-29T09:01:59;99339.22;;;26.81;52.58
51245;BME280;37840;47.562;18.738;2023-07-29T09:04:25;99333.78;;;26.81;54.51
51245;BME280;37840;47.562;18.738;2023-07-29T09:06:51;99333.94;;;26.87;56.19
51245;BME280;37840;47.562;18.738;2023-07-29T09:09:17;99330.75;;;26.90;55.04
51245;BME280;37840;47.562;18.738;2023-07-29T09:11:43;99335.78;;;26.93;55.58
51245;BME280;37840;47.562;18.738;2023-07-29T09:14:09;99327.12;;;26.96;53.79
51245;BME280;37840;47.562;18.738;2023-07-29T09:16:35;99322.06;;;26.99;53.17
51245;BME280;37840;47.562;18.738;2023-07-29T09:19:02;99328.47;;;27.05;53.70
51245;BME280;37840;47.562;18.738;2023-07-29T09:21:28;99324.09;;;27.04;50.63
51245;BME280;37840;47.562;18.738;2023-07-29T09:23:54;99338.06;;;27.14;52.70
51245;BME280;37840;47.562;18.738;2023-07-29T09:26:26;99329.59;;;27.22;53.62
51245;BME280;37840;47.562;18.738;2023-07-29T09:28:53;99322.37;;;27.28;53.12
51245;BME280;37840;47.562;18.738;2023-07-29T09:31:20;99320.72;;;27.27;51.73
51245;BME280;37840;47.562;18.738;2023-07-29T09:33:46;99326.62;;;27.24;52.04
51245;BME280;37840;47.562;18.738;2023-07-29T09:36:11;99321.16;;;27.24;53.21
51245;BME280;37840;47.562;18.738;2023-07-29T09:38:37;99314.09;;;27.16;50.91
51245;BME280;37840;47.562;18.738;2023-07-29T09:41:03;99314.47;;;27.20;53.18
51245;BME280;37840;47.562;18.738;2023-07-29T09:43:29;99316.09;;;27.28;54.59
51245;BME280;37840;47.562;18.738;2023-07-29T09:45:59;99310.78;;;27.33;52.90
51245;BME280;37840;47.562;18.738;2023-07-29T09:48:25;99309.03;;;27.38;52.76
51245;BME280;37840;47.562;18.738;2023-07-29T09:50:50;99306.69;;;27.42;53.83
51245;BME280;37840;47.562;18.738;2023-07-29T09:53:16;99304.91;;;27.48;52.02
51245;BME280;37840;47.562;18.738;2023-07-29T09:55:51;99306.81;;;27.47;52.13
51245;BME280;37840;47.562;18.738;2023-07-29T09:58:36;99308.81;;;27.40;50.53
51245;BME280;37840;47.562;18.738;2023-07-29T10:01:06;99312.16;;;27.42;51.91
51245;BME280;37840;47.562;18.738;2023-07-29T10:03:32;99307.97;;;27.39;53.10
51245;BME280;37840;47.562;18.738;2023-07-29T10:06:02;99305.91;;;27.35;53.09
51245;BME280;37840;47.562;18.738;2023-07-29T10:08:29;99300.53;;;27.28;52.39
51245;BME280;37840;47.562;18.738;2023-07-29T10:10:55;99302.44;;;27.28;52.50
51245;BME280;37840;47.562;18.738;2023-07-29T10:13:21;99305.78;;;27.30;53.30
51245;BME280;37840;47.562;18.738;2023-07-29T10:15:47;99305.91;;;27.35;53.20
51245;BME280;37840;47.562;18.738;2023-07-29T10:18:13;99306.13;;;27.52;54.02
51245;BME280;37840;47.562;18.738;2023-07-29T10:20:41;99311.22;;;27.48;53.45
51245;BME280;37840;47.562;18.738;2023-07-29T10:23:08;99306.44;;;27.43;53.84
51245;BME280;37840;47.562;18.738;2023-07-29T10:25:39;99306.22;;;27.45;53.46
51245;BME280;37840;47.562;18.738;2023-07-29T10:28:07;99299.81;;;27.51;52.82
51245;BME280;37840;47.562;18.738;2023-07-29T10:30:33;99302.47;;;27.58;53.28
51245;BME280;37840;47.562;18.738;2023-07-29T10:33:01;99301.69;;;27.69;53.22
51245;BME280;37840;47.562;18.738;2023-07-29T10:35:27;99299.37;;;27.84;53.15
51245;BME280;37840;47.562;18.738;2023-07-29T10:37:53;99300.34;;;27.90;53.03
51245;BME280;37840;47.562;18.738;2023-07-29T10:40:19;99303.84;;;27.97;52.91
51245;BME280;37840;47.562;18.738;2023-07-29T10:43:01;99305.16;;;28.06;52.74
51245;BME280;37840;47.562;18.738;2023-07-29T10:45:36;99305.63;;;28.03;50.01
51245;BME280;37840;47.562;18.738;2023-07-29T10:48:05;99291.87;;;28.22;50.17
51245;BME280;37840;47.562;18.738;2023-07-29T10:50:31;99287.44;;;28.09;49.56
51245;BME280;37840;47.562;18.738;2023-07-29T10:52:57;99287.00;;;28.12;50.06
51245;BME280;37840;47.562;18.738;2023-07-29T10:57:51;99284.22;;;28.00;53.36
51245;BME280;37840;47.562;18.738;2023-07-29T11:00:19;99279.59;;;28.01;51.50
51245;BME280;37840;47.562;18.738;2023-07-29T11:02:56;99281.97;;;28.09;52.70
51245;BME280;37840;47.562;18.738;2023-07-29T11:05:22;99278.78;;;28.12;49.29
51245;BME280;37840;47.562;18.738;2023-07-29T11:07:48;99284.25;;;28.12;48.95
51245;BME280;37840;47.562;18.738;2023-07-29T11:10:14;99281.31;;;28.14;50.58
51245;BME280;37840;47.562;18.738;2023-07-29T11:12:41;99285.69;;;28.15;48.24
51245;BME280;37840;47.562;18.738;2023-07-29T11:17:38;99298.41;;;28.21;49.04
51245;BME280;37840;47.562;18.738;2023-07-29T11:20:04;99289.28;;;28.27;47.93
51245;BME280;37840;47.562;18.738;2023-07-29T11:22:30;99290.81;;;28.23;47.33
51245;BME280;37840;47.562;18.738;2023-07-29T11:24:56;99283.31;;;28.30;48.55
51245;BME280;37840;47.562;18.738;2023-07-29T11:27:22;99287.75;;;28.31;49.28
51245;BME280;37840;47.562;18.738;2023-07-29T11:29:48;99292.87;;;28.39;49.30
51245;BME280;37840;47.562;18.738;2023-07-29T11:32:14;99287.13;;;28.41;49.68
51245;BME280;37840;47.562;18.738;2023-07-29T11:34:41;99286.09;;;28.42;48.33
51245;BME280;37840;47.562;18.738;2023-07-29T11:37:07;99279.06;;;28.46;48.24
51245;BME280;37840;47.562;18.738;2023-07-29T11:39:38;99282.84;;;28.45;48.58
51245;BME280;37840;47.562;18.738;2023-07-29T11:42:04;99283.03;;;28.50;49.02
51245;BME280;37840;47.562;18.738;2023-07-29T11:44:30;99291.13;;;28.57;48.66
51245;BME280;37840;47.562;18.738;2023-07-29T11:46:56;99283.38;;;28.65;46.94
51245;BME280;37840;47.562;18.738;2023-07-29T11:49:21;99273.75;;;28.63;47.31
51245;BME280;37840;47.562;18.738;2023-07-29T11:51:47;99277.91;;;28.65;46.87
51245;BME280;37840;47.562;18.738;2023-07-29T11:54:13;99277.53;;;28.62;46.24
51245;BME280;37840;47.562;18.738;2023-07-29T11:56:39;99269.69;;;28.65;48.48
51245;BME280;37840;47.562;18.738;2023-07-29T11:59:04;99269.81;;;28.71;45.21
51245;BME280;37840;47.562;18.738;2023-07-29T12:01:30;99271.59;;;28.77;46.57
51245;BME280;37840;47.562;18.738;2023-07-29T12:03:56;99258.41;;;28.74;46.62
51245;BME280;37840;47.562;18.738;2023-07-29T12:06:22;99252.44;;;28.77;48.59
51245;BME280;37840;47.562;18.738;2023-07-29T12:08:49;99264.56;;;28.81;49.43
51245;BME280;37840;47.562;18.738;2023-07-29T12:11:15;99258.34;;;28.85;46.30
51245;BME280;37840;47.562;18.738;2023-07-29T12:13:41;99256.09;;;28.94;47.82
51245;BME280;37840;47.562;18.738;2023-07-29T12:16:07;99252.28;;;28.95;48.40
51245;BME280;37840;47.562;18.738;2023-07-29T12:18:33;99246.66;;;29.02;47.33
51245;BME280;37840;47.562;18.738;2023-07-29T12:20:59;99252.00;;;29.08;48.59
51245;BME280;37840;47.562;18.738;2023-07-29T12:23:25;99251.31;;;29.01;47.58
51245;BME280;37840;47.562;18.738;2023-07-29T12:25:57;99254.44;;;28.93;47.65
51245;BME280;37840;47.562;18.738;2023-07-29T12:28:23;99254.91;;;28.90;46.49
51245;BME280;37840;47.562;18.738;2023-07-29T12:30:55;99247.19;;;28.87;46.97
51245;BME280;37840;47.562;18.738;2023-07-29T12:33:31;99247.91;;;28.82;49.20
51245;BME280;37840;47.562;18.738;2023-07-29T12:35:57;99249.69;;;28.77;46.58
51245;BME280;37840;47.562;18.738;2023-07-29T12:38:25;99239.59;;;28.65;45.36
51245;BME280;37840;47.562;18.738;2023-07-29T12:40:51;99239.37;;;28.67;46.21
51245;BME280;37840;47.562;18.738;2023-07-29T12:43:17;99230.91;;;28.69;46.49
51245;BME280;37840;47.562;18.738;2023-07-29T12:45:43;99235.09;;;28.71;47.31
51245;BME280;37840;47.562;18.738;2023-07-29T12:48:09;99226.97;;;28.76;45.95
51245;BME280;37840;47.562;18.738;2023-07-29T12:50:36;99233.13;;;28.83;45.24
51245;BME280;37840;47.562;18.738;2023-07-29T12:53:02;99236.22;;;28.87;45.77
51245;BME280;37840;47.562;18.738;2023-07-29T12:55:27;99239.66;;;28.94;46.54